Grandfather, North Carolina
Current Conditions -  °F | °C
As of 11:55 AM on Thursday 30 Oct 2014 (Local Time) from KTNB Reporting Station
Clear Clear  
Wind Chill: 51°   Ceiling: Unl
Heat Index: 51°   Visibility: 10mi
Dew Point: 26°   Wind: 13mph
Humidity: 39%   Direction: 300°WNW
Pressure: 30.08"   Gusts: 17mph
Location:  36.1797°N, 81.8424°W
Report Text: KTNB 301555Z AUTO 30011G15KT 10SM CLR 10/M03 A3008 RMK AO2 T01031032
Loading
Personal Weather Stations






























Interactive Weather Map
Tropical Storm Tracking
New forecast layout! Learn more

10-Day Weather Forecast

Advertisements
Track Severe Weather on mobile